createdAt,value
2018-05-08T00:01:01.118Z,12.00
2018-05-08T00:03:29.514Z,9.10
2018-05-08T00:05:57.872Z,12.93
2018-05-08T00:08:26.083Z,9.73
2018-05-08T00:10:54.459Z,11.80
2018-05-08T00:13:22.745Z,7.77
2018-05-08T00:15:51.362Z,8.93
2018-05-08T00:18:19.665Z,10.37
2018-05-08T00:20:47.974Z,10.90
2018-05-08T00:23:16.221Z,9.60
2018-05-08T00:25:44.564Z,13.40
2018-05-08T00:28:14.551Z,8.40
2018-05-08T00:30:43.263Z,8.70
2018-05-08T00:33:12.331Z,10.43
2018-05-08T00:35:40.560Z,10.57
2018-05-08T00:38:14.685Z,10.87
2018-05-08T00:40:48.836Z,8.97
2018-05-08T00:43:22.916Z,12.23
2018-05-08T00:45:57.538Z,10.90
2018-05-08T00:48:31.688Z,9.57
2018-05-08T00:51:05.798Z,8.67
2018-05-08T00:53:41.860Z,15.93
2018-05-08T00:56:16.692Z,10.03
2018-05-08T00:58:51.894Z,11.53
2018-05-08T01:01:27.381Z,9.83
2018-05-08T01:04:10.189Z,12.00
2018-05-08T01:06:51.582Z,10.57
2018-05-08T01:09:27.091Z,9.87
2018-05-08T01:12:01.236Z,9.70
2018-05-08T01:14:35.246Z,10.30
2018-05-08T01:17:09.311Z,13.13
2018-05-08T01:19:43.571Z,9.40
2018-05-08T01:22:18.225Z,11.47
2018-05-08T01:24:54.465Z,9.93
2018-05-08T01:27:28.451Z,14.87
2018-05-08T01:30:10.065Z,8.87
2018-05-08T06:37:10.193Z,10.23
2018-05-08T06:39:44.089Z,11.67
2018-05-08T06:42:17.845Z,14.10
2018-05-08T06:44:51.548Z,11.77
2018-05-08T06:47:25.419Z,10.23
2018-05-08T06:49:59.064Z,11.23
2018-05-08T06:52:32.925Z,9.70
2018-05-08T06:55:06.749Z,12.37
2018-05-08T06:57:41.307Z,12.83
2018-05-08T07:00:15.021Z,19.67
2018-05-08T07:02:49.559Z,9.13
2018-05-08T07:05:23.964Z,8.93
2018-05-08T07:07:57.719Z,12.50
2018-05-08T07:10:31.373Z,10.97
2018-05-08T07:13:05.235Z,15.10
2018-05-08T07:15:39.043Z,10.07
2018-05-08T07:18:12.806Z,8.73
2018-05-08T07:20:46.619Z,16.17
2018-05-08T07:23:14.820Z,13.53
2018-05-08T07:25:43.829Z,11.43
2018-05-08T07:28:12.024Z,11.43
2018-05-08T07:30:40.600Z,16.23
2018-05-08T07:33:08.799Z,12.50
2018-05-08T07:35:37.060Z,9.60
2018-05-08T07:38:05.270Z,8.53
2018-05-08T07:40:34.349Z,12.20
2018-05-08T07:43:02.634Z,11.60
2018-05-08T07:45:30.913Z,11.03
2018-05-08T07:47:59.092Z,13.60
2018-05-08T07:50:27.265Z,11.23
2018-05-08T07:52:56.220Z,11.50
2018-05-08T07:55:25.148Z,11.00
2018-05-08T07:57:54.107Z,8.73
2018-05-08T08:00:22.429Z,8.30
2018-05-08T08:02:50.648Z,12.63
2018-05-08T08:05:18.857Z,10.13
2018-05-08T08:07:47.796Z,7.90
2018-05-08T08:10:16.052Z,6.80
2018-05-08T08:12:44.236Z,6.63
2018-05-08T08:15:12.465Z,8.67
2018-05-08T08:17:41.472Z,18.20
2018-05-08T08:20:09.728Z,13.60
2018-05-08T08:22:38.016Z,10.00
2018-05-08T08:25:06.214Z,8.40
2018-05-08T08:27:34.377Z,6.90
2018-05-08T08:30:02.606Z,9.63
2018-05-08T08:32:30.801Z,8.20
2018-05-08T08:34:59.005Z,7.37
2018-05-08T08:37:27.763Z,9.73
2018-05-08T08:39:56.753Z,7.20
2018-05-08T08:42:25.703Z,10.17
2018-05-08T08:44:53.932Z,9.00
2018-05-08T08:47:22.898Z,11.83
2018-05-08T08:49:51.146Z,7.80
2018-05-08T08:52:19.340Z,8.97
2018-05-08T08:54:47.675Z,11.17
2018-05-08T08:57:16.716Z,11.77
2018-05-08T08:59:44.997Z,6.93
2018-05-08T09:02:13.182Z,10.03
2018-05-08T09:04:42.132Z,11.00
2018-05-08T09:07:10.821Z,13.13
2018-05-08T09:09:39.138Z,9.43
2018-05-08T09:12:07.377Z,12.73
2018-05-08T09:14:36.420Z,12.40
2018-05-08T09:17:04.676Z,7.83
2018-05-08T09:19:33.711Z,9.60
2018-05-08T09:22:01.924Z,7.33
2018-05-08T09:24:30.132Z,13.57
2018-05-08T09:26:58.337Z,10.93
2018-05-08T09:29:26.538Z,10.17
2018-05-08T09:31:54.738Z,8.87
2018-05-08T09:34:23.857Z,9.10
2018-05-08T09:36:52.114Z,7.63
2018-05-08T09:39:20.363Z,8.73
2018-05-08T09:41:48.583Z,10.53
2018-05-08T09:44:16.802Z,7.70
2018-05-08T09:46:45.152Z,9.13
2018-05-08T09:49:13.483Z,13.03
2018-05-08T09:51:41.646Z,12.07
2018-05-08T09:54:10.711Z,9.60
2018-05-08T09:56:38.922Z,10.73
2018-05-08T09:59:07.867Z,6.00
2018-05-08T10:01:36.075Z,6.87
2018-05-08T10:04:05.819Z,9.83
2018-05-08T10:06:34.095Z,7.97
2018-05-08T10:09:02.227Z,8.10
2018-05-08T10:11:31.274Z,7.10
2018-05-08T10:13:59.451Z,8.18
2018-05-08T10:16:27.635Z,7.97
2018-05-08T10:18:55.864Z,7.65
2018-05-08T10:21:24.118Z,8.15
2018-05-08T10:23:53.077Z,7.62
2018-05-08T10:26:21.282Z,9.63
2018-05-08T10:28:50.815Z,5.82
2018-05-08T10:31:18.985Z,12.25
2018-05-08T10:33:47.208Z,6.30
2018-05-08T10:36:15.373Z,5.07
2018-05-08T10:38:43.562Z,6.12
2018-05-08T10:41:11.753Z,5.50
2018-05-08T10:43:40.702Z,10.95
2018-05-08T10:46:08.883Z,4.87
2018-05-08T10:48:37.107Z,7.70
2018-05-08T10:51:05.352Z,6.75
2018-05-08T10:53:34.308Z,9.32
2018-05-08T10:56:02.483Z,5.53
2018-05-08T10:58:30.707Z,5.30
2018-05-08T11:00:59.653Z,10.82
2018-05-08T11:03:27.865Z,7.43
2018-05-08T11:05:56.825Z,6.28
2018-05-08T11:08:25.017Z,8.13
2018-05-08T11:10:53.373Z,12.77
2018-05-08T11:13:21.597Z,8.40
2018-05-08T11:15:49.758Z,6.35
2018-05-08T11:18:17.928Z,6.78
2018-05-08T11:20:46.917Z,5.75
2018-05-08T11:23:15.890Z,4.83
2018-05-08T11:25:44.173Z,4.77
2018-05-08T11:28:13.128Z,10.17
2018-05-08T11:30:41.301Z,6.00
2018-05-08T11:33:09.484Z,8.70
2018-05-08T11:35:37.673Z,10.13
2018-05-08T11:38:05.897Z,10.53
2018-05-08T11:40:34.070Z,5.07
2018-05-08T11:43:02.248Z,5.20
2018-05-08T11:45:30.440Z,5.40
2018-05-08T11:47:58.643Z,8.90
2018-05-08T11:50:26.829Z,8.87
2018-05-08T11:52:55.821Z,6.90
2018-05-08T11:55:24.756Z,12.43
2018-05-08T11:57:53.012Z,8.00
2018-05-08T12:00:21.210Z,5.13
2018-05-08T12:02:49.399Z,7.50
2018-05-08T12:05:17.736Z,5.20
2018-05-08T12:07:46.021Z,2.83
2018-05-08T12:10:14.797Z,10.00
2018-05-08T12:12:42.992Z,3.20
2018-05-08T12:15:11.642Z,3.70
2018-05-08T12:17:40.086Z,4.47
2018-05-08T12:20:08.262Z,3.53
2018-05-08T12:22:36.499Z,4.07
2018-05-08T12:25:04.828Z,5.90
2018-05-08T12:27:33.068Z,5.70
2018-05-08T12:30:01.301Z,4.63
2018-05-08T12:32:29.521Z,5.80
2018-05-08T12:34:57.789Z,8.87
2018-05-08T12:37:25.997Z,5.63
2018-05-08T12:39:54.941Z,3.87
2018-05-08T12:42:23.100Z,5.83
2018-05-08T12:44:51.309Z,4.10
2018-05-08T12:47:19.481Z,5.07
2018-05-08T12:49:47.699Z,3.23
2018-05-08T12:52:15.925Z,9.10
2018-05-08T12:54:44.109Z,4.27
2018-05-08T12:57:12.271Z,4.60
2018-05-08T12:59:40.572Z,4.30
2018-05-08T13:02:09.516Z,4.90
2018-05-08T13:04:37.702Z,3.80
2018-05-08T13:07:06.511Z,3.93
2018-05-08T13:09:34.691Z,2.27
2018-05-08T13:12:03.646Z,2.10
2018-05-08T13:14:32.231Z,2.27
2018-05-08T13:17:01.220Z,1.83
2018-05-08T13:19:30.291Z,6.43
2018-05-08T13:21:58.699Z,2.80
2018-05-08T13:24:26.888Z,3.27
2018-05-08T13:26:55.158Z,4.30
2018-05-08T13:29:23.344Z,4.63
2018-05-08T13:31:51.725Z,6.87
2018-05-08T13:34:20.030Z,2.83
2018-05-08T13:36:48.994Z,4.60
2018-05-08T13:39:17.921Z,3.13
2018-05-08T13:41:54.528Z,6.40
2018-05-08T13:44:25.188Z,2.47
2018-05-08T13:46:53.461Z,2.43
2018-05-08T13:49:23.211Z,2.30
2018-05-08T13:51:51.421Z,2.17
2018-05-08T13:54:19.608Z,3.43
2018-05-08T13:56:47.821Z,2.00
2018-05-08T13:59:16.012Z,2.20
2018-05-08T14:01:44.298Z,2.87
2018-05-08T14:04:12.559Z,3.23
2018-05-08T14:06:40.797Z,1.83
2018-05-08T14:09:09.793Z,7.83
2018-05-08T14:11:38.726Z,4.67
2018-05-08T14:14:06.913Z,4.87
2018-05-08T14:16:35.172Z,2.93
2018-05-08T14:19:03.343Z,3.27
2018-05-08T14:21:31.562Z,5.13
2018-05-08T14:23:59.810Z,3.30
2018-05-08T14:26:27.972Z,2.73
2018-05-08T14:28:56.231Z,5.77
2018-05-08T14:31:24.448Z,3.40
2018-05-08T14:33:52.641Z,4.37
2018-05-08T14:36:20.830Z,2.80
2018-05-08T14:38:49.003Z,3.60
2018-05-08T14:41:17.205Z,5.17
2018-05-08T14:43:45.713Z,3.13
2018-05-08T14:46:13.792Z,4.63
2018-05-08T14:48:42.775Z,5.47
2018-05-08T14:51:11.060Z,5.27
2018-05-08T14:53:39.537Z,4.50
2018-05-08T14:56:07.717Z,4.87
2018-05-08T14:58:36.777Z,4.23
2018-05-08T15:01:05.091Z,5.03
2018-05-08T15:03:33.287Z,13.03
2018-05-08T15:06:02.159Z,5.90
2018-05-08T15:08:31.201Z,15.10
2018-05-08T15:10:59.458Z,14.80
2018-05-08T15:13:27.756Z,16.43
2018-05-08T15:15:56.030Z,19.07
2018-05-08T15:18:24.268Z,19.37
2018-05-08T15:20:52.509Z,11.80
2018-05-08T15:23:21.347Z,17.50
2018-05-08T15:25:49.605Z,15.60
2018-05-08T15:28:17.841Z,20.23
2018-05-08T15:30:46.063Z,11.40
2018-05-08T15:33:14.283Z,10.73
2018-05-08T15:35:42.496Z,16.20
2018-05-08T15:38:11.628Z,11.43
2018-05-08T15:40:39.863Z,20.10
2018-05-08T15:43:08.147Z,17.17
2018-05-08T15:45:36.451Z,14.67
2018-05-08T15:48:04.673Z,9.90
2018-05-08T15:50:33.626Z,17.67
2018-05-08T15:53:01.860Z,17.10
2018-05-08T15:55:30.060Z,10.80
2018-05-08T15:57:58.253Z,15.07
2018-05-08T16:00:26.455Z,14.50
2018-05-08T16:02:54.637Z,20.10
2018-05-08T16:05:22.844Z,17.53
2018-05-08T16:07:51.033Z,17.80
2018-05-08T16:10:19.223Z,15.17
2018-05-08T16:12:47.479Z,13.20
2018-05-08T16:15:16.202Z,13.90
2018-05-08T16:17:45.208Z,20.90
2018-05-08T16:20:13.420Z,15.13
2018-05-08T16:22:41.648Z,16.70
2018-05-08T16:25:11.681Z,12.17
2018-05-08T16:27:40.192Z,15.27
2018-05-08T16:30:08.725Z,17.03
2018-05-08T16:32:37.796Z,17.17
2018-05-08T16:35:06.341Z,16.97
2018-05-08T16:37:43.094Z,17.23
2018-05-08T16:40:12.731Z,18.03
2018-05-08T16:42:41.617Z,18.97
2018-05-08T16:45:10.551Z,19.03
2018-05-08T16:47:39.632Z,18.77
2018-05-08T16:50:08.642Z,21.73
2018-05-08T16:52:37.018Z,17.47
2018-05-08T16:55:05.296Z,19.40
2018-05-08T16:57:33.764Z,19.60
2018-05-08T17:00:02.089Z,16.87
2018-05-08T17:02:30.460Z,18.23
2018-05-08T17:04:58.782Z,17.13
2018-05-08T17:07:27.813Z,14.93
2018-05-08T17:09:56.109Z,19.20
2018-05-08T17:12:24.512Z,14.00
2018-05-08T17:14:53.850Z,13.70
2018-05-08T17:17:22.953Z,13.33
2018-05-08T17:19:51.441Z,11.63
2018-05-08T17:22:19.762Z,12.23
2018-05-08T17:24:48.211Z,10.60
2018-05-08T17:27:22.450Z,13.30
2018-05-08T17:29:51.841Z,12.07
2018-05-08T17:32:24.121Z,13.13
2018-05-08T17:34:53.279Z,9.43
2018-05-08T17:37:21.525Z,10.77
2018-05-08T17:39:50.526Z,16.70
2018-05-08T17:42:19.003Z,15.50
2018-05-08T17:44:51.712Z,15.33
2018-05-08T17:47:21.049Z,14.53
2018-05-08T17:49:49.435Z,12.97
2018-05-08T17:52:23.262Z,10.83
2018-05-08T17:54:51.615Z,11.83
2018-05-08T17:57:19.920Z,14.97
2018-05-08T17:59:48.479Z,9.90
2018-05-08T18:02:16.699Z,10.40
2018-05-08T18:04:44.994Z,10.27
2018-05-08T18:07:13.336Z,11.07
2018-05-08T18:09:41.853Z,14.93
2018-05-08T18:12:10.193Z,12.30
2018-05-08T18:14:38.548Z,12.83
2018-05-08T18:17:06.787Z,14.10
2018-05-08T18:19:35.807Z,12.07
2018-05-08T18:22:04.145Z,17.97
2018-05-08T18:24:32.433Z,14.77
2018-05-08T18:27:00.724Z,13.00
2018-05-08T18:29:28.908Z,11.67
2018-05-08T18:31:59.130Z,12.53
2018-05-08T18:34:27.515Z,14.03
2018-05-08T18:36:55.775Z,14.10
2018-05-08T18:39:24.755Z,17.33
2018-05-08T18:41:56.812Z,11.40
2018-05-08T18:44:25.877Z,15.33
2018-05-08T18:46:54.389Z,15.33
2018-05-08T18:49:22.689Z,11.67
2018-05-08T18:51:51.688Z,12.40
2018-05-08T18:54:24.984Z,19.30
2018-05-08T18:56:54.104Z,9.77
2018-05-08T18:59:22.284Z,6.00
2018-05-08T19:01:50.570Z,8.63
2018-05-08T19:04:18.771Z,8.33
2018-05-08T19:06:47.073Z,11.23
2018-05-08T19:09:15.333Z,11.53
2018-05-08T19:11:44.301Z,9.73
2018-05-08T19:14:12.668Z,14.77
2018-05-08T19:16:40.930Z,16.97
2018-05-08T19:21:57.570Z,19.73
2018-05-08T19:24:32.435Z,16.23
2018-05-08T19:27:01.415Z,16.13
2018-05-08T19:29:35.333Z,17.43
2018-05-08T19:32:03.597Z,16.43
2018-05-08T19:34:37.509Z,18.50
2018-05-08T19:37:11.423Z,16.20
2018-05-08T19:39:39.761Z,17.93
2018-05-08T19:42:07.935Z,18.37
2018-05-08T19:44:36.203Z,17.67
2018-05-08T19:47:04.471Z,19.53
2018-05-08T19:49:32.817Z,17.70
2018-05-08T19:52:01.839Z,20.47
2018-05-08T19:54:31.684Z,16.70
2018-05-08T19:56:59.885Z,16.00
2018-05-08T19:59:28.098Z,16.70
2018-05-08T20:01:56.326Z,17.77
2018-05-08T20:04:25.961Z,13.73
2018-05-08T20:06:54.148Z,17.83
2018-05-08T20:09:22.445Z,15.90
2018-05-08T20:11:50.838Z,15.10
2018-05-08T20:14:19.121Z,17.00
2018-05-08T20:16:47.391Z,13.63
2018-05-08T20:19:15.707Z,14.23
2018-05-08T20:21:44.129Z,16.93
2018-05-08T20:24:12.407Z,16.73
2018-05-08T20:26:41.422Z,15.67
2018-05-08T20:29:10.554Z,15.10
2018-05-08T20:31:38.930Z,19.53
2018-05-08T20:34:07.333Z,19.37
2018-05-08T20:36:35.568Z,19.10
2018-05-08T20:39:06.369Z,16.20
2018-05-08T20:41:34.629Z,16.20
2018-05-08T20:44:03.286Z,16.43
2018-05-08T20:46:31.558Z,15.13
2018-05-08T20:49:00.178Z,18.33
2018-05-08T20:51:29.118Z,16.67
2018-05-08T20:53:57.359Z,18.00
2018-05-08T20:56:26.335Z,22.10
2018-05-08T20:58:54.621Z,22.60
2018-05-08T21:01:23.396Z,20.97
2018-05-08T21:03:51.532Z,12.97
2018-05-08T21:06:19.729Z,11.33
2018-05-08T21:08:47.903Z,9.27
2018-05-08T21:11:16.107Z,15.47
2018-05-08T21:13:45.132Z,11.23
2018-05-08T21:16:13.338Z,7.30
2018-05-08T21:18:41.555Z,9.47
2018-05-08T21:21:10.532Z,16.03
2018-05-08T21:23:38.719Z,15.90
2018-05-08T21:26:07.696Z,16.43
2018-05-08T21:28:42.393Z,18.70
2018-05-08T21:31:14.545Z,14.63
2018-05-08T21:33:42.982Z,15.80
2018-05-08T21:36:11.941Z,14.60
2018-05-08T21:38:40.316Z,14.73
2018-05-08T21:41:08.520Z,14.73
2018-05-08T21:43:37.686Z,17.10
2018-05-08T21:46:05.989Z,14.63
2018-05-08T21:48:35.022Z,17.10
2018-05-08T21:51:03.252Z,17.07
2018-05-08T21:53:32.483Z,14.27
2018-05-08T21:56:00.743Z,15.97
2018-05-08T21:58:29.024Z,18.53
2018-05-08T22:00:57.398Z,16.57
2018-05-08T22:03:26.060Z,17.47
2018-05-08T22:05:54.428Z,16.17
2018-05-08T22:08:22.681Z,18.90
2018-05-08T22:10:50.972Z,15.60
2018-05-08T22:13:19.270Z,15.73
2018-05-08T22:15:47.624Z,18.00
2018-05-08T22:18:15.911Z,18.80
2018-05-08T22:20:44.203Z,15.20
2018-05-08T22:23:13.249Z,19.07
2018-05-08T22:25:41.513Z,14.93
2018-05-08T22:28:09.798Z,16.53
2018-05-08T22:30:38.156Z,16.33
2018-05-08T22:33:06.424Z,16.47
2018-05-08T22:35:34.680Z,14.63
2018-05-08T22:38:02.984Z,17.33
2018-05-08T22:40:31.200Z,18.77
2018-05-08T22:43:00.404Z,18.07
2018-05-08T22:45:28.620Z,17.87
2018-05-08T22:47:56.870Z,24.73
2018-05-08T22:50:25.963Z,28.60
2018-05-08T22:52:55.027Z,16.40
2018-05-08T22:55:23.286Z,12.83
2018-05-08T22:57:51.525Z,11.90
2018-05-08T23:00:19.835Z,10.73
2018-05-08T23:02:48.009Z,11.13
2018-05-08T23:05:16.197Z,10.30
2018-05-08T23:07:44.490Z,8.20
2018-05-08T23:10:14.292Z,9.23
2018-05-08T23:12:43.357Z,6.13
2018-05-08T23:15:11.713Z,7.90
2018-05-08T23:17:40.022Z,7.37
2018-05-08T23:20:09.700Z,5.60
2018-05-08T23:22:37.875Z,6.30
2018-05-08T23:25:06.123Z,6.97
2018-05-08T23:27:34.327Z,7.47
2018-05-08T23:30:02.549Z,5.97
2018-05-08T23:32:32.343Z,5.23
2018-05-08T23:35:01.175Z,6.30
2018-05-08T23:37:29.384Z,6.47
2018-05-08T23:39:58.283Z,7.20
2018-05-08T23:42:26.495Z,5.70
2018-05-08T23:44:54.678Z,8.70
2018-05-08T23:47:22.862Z,8.87
2018-05-08T23:49:51.080Z,5.03
2018-05-08T23:52:19.246Z,6.77
2018-05-08T23:54:47.772Z,7.47
2018-05-08T23:57:15.966Z,6.93
2018-05-08T23:59:44.184Z,9.10
